createdAt,value
2023-02-08T00:00:59.261Z,32.53
2023-02-08T00:03:29.197Z,29.77
2023-02-08T00:05:56.514Z,29.85
2023-02-08T00:08:23.665Z,30.85
2023-02-08T00:10:51.418Z,33.35
2023-02-08T00:13:18.604Z,28.70
2023-02-08T00:15:46.989Z,35.28
2023-02-08T00:18:14.584Z,28.20
2023-02-08T00:20:44.858Z,31.50
2023-02-08T00:23:14.136Z,25.80
2023-02-08T00:25:41.940Z,32.50
2023-02-08T00:28:14.211Z,27.73
2023-02-08T00:30:42.636Z,28.25
2023-02-08T00:33:10.688Z,26.15
2023-02-08T00:35:37.936Z,26.63
2023-02-08T00:38:05.269Z,32.45
2023-02-08T00:40:32.296Z,24.50
2023-02-08T00:42:59.609Z,31.88
2023-02-08T00:45:26.808Z,28.17
2023-02-08T00:47:54.144Z,37.33
2023-02-08T00:50:21.429Z,31.10
2023-02-08T00:52:48.691Z,23.20
2023-02-08T00:55:15.931Z,23.83
2023-02-08T00:57:43.227Z,29.70
2023-02-08T01:00:11.405Z,31.33
2023-02-08T01:02:39.539Z,28.88
2023-02-08T01:05:07.422Z,34.53
2023-02-08T01:07:37.891Z,30.58
2023-02-08T01:10:14.257Z,32.10
2023-02-08T01:12:41.522Z,33.67
2023-02-08T01:15:09.328Z,32.38
2023-02-08T01:17:36.755Z,32.83
2023-02-08T01:20:04.495Z,32.95
2023-02-08T01:22:31.712Z,35.10
2023-02-08T01:24:59.143Z,32.90
2023-02-08T01:27:26.417Z,39.17
2023-02-08T01:29:53.786Z,35.20
2023-02-08T01:32:21.167Z,36.30
2023-02-08T01:34:50.668Z,31.95
2023-02-08T01:37:17.819Z,37.97
2023-02-08T01:39:44.991Z,38.13
2023-02-08T01:42:16.251Z,28.80
2023-02-08T01:45:21.474Z,31.00
2023-02-08T01:47:53.583Z,28.98
2023-02-08T01:50:23.787Z,27.65
2023-02-08T01:52:51.953Z,35.72
2023-02-08T01:55:29.262Z,37.33
2023-02-08T01:58:00.332Z,35.38
2023-02-08T02:00:27.972Z,39.47
2023-02-08T02:02:57.272Z,32.97
2023-02-08T02:05:28.927Z,27.52
2023-02-08T02:07:59.027Z,32.00
2023-02-08T02:10:30.036Z,34.17
2023-02-08T02:13:02.714Z,33.63
2023-02-08T02:15:29.909Z,29.60
2023-02-08T02:17:59.884Z,38.92
2023-02-08T02:20:42.745Z,42.80
2023-02-08T02:23:41.444Z,32.40
2023-02-08T02:26:28.588Z,32.30
2023-02-08T02:29:26.231Z,30.10
2023-02-08T02:32:24.497Z,35.30
2023-02-08T02:35:06.308Z,31.80
2023-02-08T02:37:58.001Z,36.70
2023-02-08T02:40:52.237Z,32.40
2023-02-08T02:43:42.866Z,34.10
2023-02-08T02:46:25.034Z,41.33
2023-02-08T02:49:24.551Z,33.33
2023-02-08T02:52:14.877Z,36.80
2023-02-08T02:54:53.296Z,41.53
2023-02-08T02:57:27.293Z,32.78
2023-02-08T02:59:54.716Z,33.93
2023-02-08T03:02:22.341Z,30.92
2023-02-08T03:04:55.872Z,38.28
2023-02-08T03:07:52.960Z,38.22
2023-02-08T03:11:11.372Z,42.97
2023-02-08T03:14:10.168Z,35.22
2023-02-08T03:17:09.453Z,34.08
2023-02-08T03:19:48.230Z,45.92
2023-02-08T03:22:22.606Z,39.45
2023-02-08T03:24:58.252Z,40.05
2023-02-08T03:27:29.087Z,47.80
2023-02-08T03:30:00.864Z,45.03
2023-02-08T03:32:33.013Z,46.05
2023-02-08T03:35:06.783Z,58.38
2023-02-08T03:37:38.879Z,45.85
2023-02-08T03:40:23.735Z,45.35
2023-02-08T03:42:54.280Z,45.78
2023-02-08T03:45:26.964Z,44.47
2023-02-08T03:47:57.672Z,47.83
2023-02-08T03:50:25.406Z,44.60
2023-02-08T03:52:53.999Z,43.05
2023-02-08T03:55:31.666Z,43.80
2023-02-08T03:58:17.524Z,50.60
2023-02-08T04:00:52.474Z,41.55
2023-02-08T04:05:57.253Z,46.20
2023-02-08T04:08:24.766Z,43.08
2023-02-08T04:10:52.163Z,42.60
2023-02-08T04:13:19.364Z,44.08
2023-02-08T04:15:46.556Z,47.60
2023-02-08T04:18:14.602Z,46.92
2023-02-08T04:20:44.691Z,44.38
2023-02-08T04:23:11.947Z,45.50
2023-02-08T04:25:39.296Z,43.35
2023-02-08T04:28:06.754Z,40.65
2023-02-08T04:30:34.089Z,48.10
2023-02-08T04:33:01.477Z,40.35
2023-02-08T04:35:28.988Z,42.03
2023-02-08T04:37:56.029Z,41.05
2023-02-08T04:40:23.560Z,42.92
2023-02-08T04:42:50.908Z,38.13
2023-02-08T04:45:18.489Z,40.67
2023-02-08T04:47:45.851Z,44.15
2023-02-08T04:50:13.028Z,41.33
2023-02-08T04:52:40.135Z,54.78
2023-02-08T04:55:08.100Z,50.40
2023-02-08T04:57:35.257Z,45.90
2023-02-08T05:00:02.698Z,56.55
2023-02-08T05:02:30.201Z,39.30
2023-02-08T05:04:57.481Z,47.17
2023-02-08T05:07:25.602Z,42.17
2023-02-08T05:09:52.808Z,42.97
2023-02-08T05:12:20.103Z,48.83
2023-02-08T05:14:47.432Z,48.00
2023-02-08T05:17:14.723Z,52.75
2023-02-08T05:19:42.079Z,52.55
2023-02-08T05:22:12.208Z,42.17
2023-02-08T05:24:39.385Z,56.72
2023-02-08T05:27:06.693Z,50.33
2023-02-08T05:29:34.040Z,50.35
2023-02-08T05:32:01.221Z,50.72
2023-02-08T05:34:28.712Z,55.72
2023-02-08T05:36:55.926Z,53.35
2023-02-08T05:39:23.302Z,51.38
2023-02-08T05:41:50.420Z,51.03
2023-02-08T05:44:17.740Z,48.55
2023-02-08T05:46:45.188Z,45.53
2023-02-08T05:49:12.568Z,54.55
2023-02-08T05:51:39.775Z,47.83
2023-02-08T05:54:07.045Z,50.70
2023-02-08T05:56:35.009Z,54.22
2023-02-08T05:59:02.748Z,49.30
2023-02-08T06:01:30.128Z,48.90
2023-02-08T06:04:00.784Z,53.60
2023-02-08T06:06:28.650Z,52.53
2023-02-08T06:08:55.856Z,53.05
2023-02-08T06:11:23.035Z,56.80
2023-02-08T06:13:50.364Z,50.10
2023-02-08T06:16:19.890Z,56.90
2023-02-08T06:18:47.408Z,56.88
2023-02-08T06:21:14.663Z,50.80
2023-02-08T06:23:42.749Z,52.72
2023-02-08T06:26:10.159Z,52.63
2023-02-08T06:28:37.341Z,42.03
2023-02-08T06:31:04.766Z,61.58
2023-02-08T06:33:31.864Z,57.20
2023-02-08T06:35:59.026Z,61.47
2023-02-08T06:38:27.732Z,55.63
2023-02-08T06:40:55.035Z,54.13
2023-02-08T06:43:22.200Z,61.38
2023-02-08T06:45:49.518Z,56.38
2023-02-08T06:48:16.982Z,70.47
2023-02-08T06:50:44.520Z,63.40
2023-02-08T06:53:12.081Z,64.82
2023-02-08T06:55:39.775Z,58.10
2023-02-08T06:58:07.096Z,66.78
2023-02-08T07:00:34.334Z,57.85
2023-02-08T07:03:01.544Z,76.28
2023-02-08T07:05:34.277Z,67.75
2023-02-08T07:08:01.739Z,64.55
2023-02-08T07:10:28.999Z,63.38
2023-02-08T07:12:56.337Z,71.45
2023-02-08T07:15:23.508Z,73.00
2023-02-08T07:19:30.325Z,70.72
2023-02-08T07:21:59.588Z,75.70
2023-02-08T07:24:26.906Z,69.32
2023-02-08T07:26:54.021Z,60.97
2023-02-08T07:29:21.926Z,66.13
2023-02-08T07:31:49.233Z,71.10
2023-02-08T07:34:22.062Z,68.05
2023-02-08T07:36:52.359Z,67.68
2023-02-08T07:39:19.736Z,85.00
2023-02-08T07:41:47.775Z,75.50
2023-02-08T07:44:15.210Z,67.75
2023-02-08T07:46:42.568Z,67.88
2023-02-08T07:49:10.532Z,65.38
2023-02-08T07:55:46.144Z,60.72
2023-02-08T07:58:16.088Z,64.68
2023-02-08T08:00:44.381Z,71.18
2023-02-08T08:03:11.670Z,76.68
2023-02-08T08:05:41.920Z,68.88
2023-02-08T08:08:13.037Z,53.50
2023-02-08T08:10:43.699Z,55.88
2023-02-08T08:13:11.197Z,60.58
2023-02-08T08:15:39.015Z,70.00
2023-02-08T08:18:06.422Z,68.25
2023-02-08T08:20:33.747Z,52.10
2023-02-08T08:23:01.817Z,54.17
2023-02-08T08:25:29.168Z,57.47
2023-02-08T08:27:57.012Z,63.03
2023-02-08T08:30:24.502Z,65.90
2023-02-08T08:32:51.791Z,58.20
2023-02-08T08:35:19.259Z,56.05
2023-02-08T08:37:46.645Z,68.28
2023-02-08T08:40:13.908Z,67.13
2023-02-08T08:42:41.233Z,59.25
2023-02-08T08:45:09.185Z,59.78
2023-02-08T08:47:39.291Z,51.13
2023-02-08T08:50:07.117Z,54.75
2023-02-08T08:52:34.361Z,58.05
2023-02-08T08:55:01.743Z,56.45
2023-02-08T08:57:32.552Z,60.15
2023-02-08T09:00:00.045Z,56.33
2023-02-08T09:02:27.510Z,60.63
2023-02-08T09:04:54.864Z,51.30
2023-02-08T09:07:22.148Z,53.70
2023-02-08T09:09:50.142Z,60.90
2023-02-08T09:12:17.566Z,55.17
2023-02-08T09:14:50.061Z,50.38
2023-02-08T09:17:17.204Z,60.47
2023-02-08T09:19:44.549Z,59.50
2023-02-08T09:22:11.848Z,49.35
2023-02-08T09:24:39.125Z,66.70
2023-02-08T09:27:06.552Z,57.75
2023-02-08T09:29:34.534Z,59.00
2023-02-08T09:32:02.035Z,50.75
2023-02-08T09:34:29.370Z,50.40
2023-02-08T09:36:57.110Z,53.03
2023-02-08T09:39:25.820Z,56.10
2023-02-08T09:42:22.320Z,48.97
2023-02-08T09:45:07.691Z,52.97
2023-02-08T09:50:46.882Z,55.45
2023-02-08T09:53:34.574Z,56.03
2023-02-08T09:56:14.015Z,57.58
2023-02-08T09:58:45.091Z,58.72
2023-02-08T10:01:34.304Z,54.25
2023-02-08T10:04:08.215Z,48.10
2023-02-08T10:06:35.732Z,58.90
2023-02-08T10:09:06.733Z,44.05
2023-02-08T10:11:59.095Z,49.30
2023-02-08T10:14:57.078Z,59.60
2023-02-08T10:17:27.475Z,46.65
2023-02-08T10:20:03.969Z,54.03
2023-02-08T10:23:14.070Z,53.28
2023-02-08T10:25:59.422Z,55.17
2023-02-08T10:28:46.356Z,50.30
2023-02-08T10:31:38.158Z,53.33
2023-02-08T10:34:33.760Z,50.28
2023-02-08T10:37:06.365Z,55.63
2023-02-08T10:39:35.928Z,48.90
2023-02-08T10:42:05.173Z,58.03
2023-02-08T10:44:55.796Z,43.92
2023-02-08T10:47:46.304Z,50.47
2023-02-08T10:50:13.470Z,43.13
2023-02-08T10:52:40.965Z,50.05
2023-02-08T10:55:16.322Z,52.20
2023-02-08T10:57:45.563Z,50.90
2023-02-08T11:00:22.569Z,39.13
2023-02-08T11:02:53.182Z,34.13
2023-02-08T11:05:26.339Z,40.67
2023-02-08T11:08:20.963Z,43.63
2023-02-08T11:11:03.087Z,36.85
2023-02-08T11:13:44.502Z,35.00
2023-02-08T11:16:20.733Z,35.40
2023-02-08T11:18:53.629Z,34.85
2023-02-08T11:21:36.789Z,38.65
2023-02-08T11:24:16.204Z,47.45
2023-02-08T11:26:44.217Z,36.08
2023-02-08T11:29:23.416Z,36.05
2023-02-08T11:32:03.047Z,33.50
2023-02-08T11:34:39.407Z,36.15
2023-02-08T11:37:32.855Z,29.48
2023-02-08T11:40:01.339Z,35.25
2023-02-08T11:42:34.959Z,40.08
2023-02-08T11:45:02.438Z,35.30
2023-02-08T11:47:37.668Z,32.83
2023-02-08T11:52:39.487Z,45.47
2023-02-08T11:55:18.840Z,38.35
2023-02-08T11:58:24.506Z,42.58
2023-02-08T12:01:17.067Z,35.13
2023-02-08T12:03:47.526Z,32.50
2023-02-08T12:06:30.123Z,35.45
2023-02-08T12:09:05.784Z,41.17
2023-02-08T12:12:04.792Z,32.58
2023-02-08T12:14:42.199Z,45.60
2023-02-08T12:17:30.694Z,30.42
2023-02-08T12:20:16.452Z,35.10
2023-02-08T12:23:05.482Z,35.60
2023-02-08T12:25:49.599Z,36.55
2023-02-08T12:29:03.792Z,35.75
2023-02-08T12:31:58.788Z,35.28
2023-02-08T12:35:08.975Z,31.73
2023-02-08T12:38:10.301Z,35.65
2023-02-08T12:41:02.217Z,33.13
2023-02-08T12:43:54.589Z,33.65
2023-02-08T12:46:27.931Z,36.70
2023-02-08T12:49:04.462Z,41.63
2023-02-08T12:51:47.233Z,33.08
2023-02-08T12:54:27.249Z,32.38
2023-02-08T12:57:02.332Z,34.90
2023-02-08T12:59:39.434Z,36.20
2023-02-08T13:02:34.726Z,28.95
2023-02-08T13:05:06.968Z,29.17
2023-02-08T13:07:40.416Z,37.78
2023-02-08T13:10:36.759Z,32.78
2023-02-08T13:13:30.648Z,30.02
2023-02-08T13:16:10.360Z,30.63
2023-02-08T13:18:46.516Z,30.88
2023-02-08T13:21:41.407Z,34.38
2023-02-08T13:24:27.560Z,36.58
2023-02-08T13:26:55.371Z,32.70
2023-02-08T13:29:33.462Z,34.13
2023-02-08T13:32:07.334Z,30.00
2023-02-08T13:34:41.609Z,32.90
2023-02-08T13:37:27.132Z,29.33
2023-02-08T13:40:17.957Z,30.40
2023-02-08T13:42:52.171Z,31.13
2023-02-08T13:45:42.677Z,33.27
2023-02-08T13:48:13.945Z,25.45
2023-02-08T13:51:02.796Z,36.22
2023-02-08T13:53:39.376Z,33.38
2023-02-08T13:56:11.411Z,30.73
2023-02-08T13:58:51.169Z,31.00
2023-02-08T14:01:24.788Z,38.42
2023-02-08T14:04:10.426Z,41.33
2023-02-08T14:09:14.340Z,33.00
2023-02-08T14:11:49.933Z,37.77
2023-02-08T14:14:30.955Z,28.40
2023-02-08T14:17:24.514Z,30.77
2023-02-08T14:20:06.542Z,30.33
2023-02-08T14:22:51.096Z,32.22
2023-02-08T14:25:25.379Z,29.67
2023-02-08T14:28:00.478Z,35.63
2023-02-08T14:33:13.374Z,38.03
2023-02-08T14:35:50.236Z,37.58
2023-02-08T14:38:20.525Z,39.58
2023-02-08T14:40:50.052Z,31.20
2023-02-08T14:43:20.276Z,40.53
2023-02-08T14:45:52.598Z,41.20
2023-02-08T14:48:49.267Z,31.60
2023-02-08T14:51:22.657Z,33.75
2023-02-08T14:53:59.242Z,38.90
2023-02-08T14:56:38.013Z,35.30
2023-02-08T14:59:21.374Z,39.10
2023-02-08T15:01:53.777Z,33.95
2023-02-08T15:04:21.885Z,32.90
2023-02-08T15:07:10.457Z,39.90
2023-02-08T15:09:41.950Z,34.55
2023-02-08T15:12:34.680Z,37.88
2023-02-08T15:15:04.623Z,37.65
2023-02-08T15:17:36.327Z,33.13
2023-02-08T15:20:16.247Z,34.90
2023-02-08T15:22:43.483Z,36.20
2023-02-08T15:25:30.369Z,33.42
2023-02-08T15:28:17.749Z,35.47
2023-02-08T15:30:45.745Z,36.33
2023-02-08T15:33:18.199Z,38.70
2023-02-08T15:35:46.401Z,36.75
2023-02-08T15:38:19.451Z,35.45
2023-02-08T15:41:12.364Z,34.45
2023-02-08T15:43:41.384Z,43.13
2023-02-08T15:46:26.294Z,47.40
2023-02-08T15:48:54.934Z,60.67
2023-02-08T15:51:24.609Z,48.40
2023-02-08T15:53:55.188Z,36.10
2023-02-08T15:56:38.069Z,38.38
2023-02-08T15:59:08.581Z,36.50
2023-02-08T16:01:35.937Z,34.25
2023-02-08T16:04:12.769Z,31.63
2023-02-08T16:06:48.288Z,41.67
2023-02-08T16:09:22.205Z,34.28
2023-02-08T16:11:50.465Z,38.10
2023-02-08T16:14:27.043Z,36.83
2023-02-08T16:17:00.404Z,35.85
2023-02-08T16:19:32.551Z,31.90
2023-02-08T16:22:26.163Z,29.70
2023-02-08T16:24:53.646Z,34.30
2023-02-08T16:27:31.493Z,37.28
2023-02-08T16:30:00.001Z,37.20
2023-02-08T16:32:39.697Z,40.53
2023-02-08T16:35:33.958Z,44.15
2023-02-08T16:38:06.428Z,34.92
2023-02-08T16:40:51.717Z,35.90
2023-02-08T16:43:35.328Z,33.45
2023-02-08T16:46:11.665Z,40.50
2023-02-08T16:48:41.439Z,46.65
2023-02-08T16:51:18.383Z,45.50
2023-02-08T16:53:47.879Z,45.55
2023-02-08T16:56:15.346Z,44.90
2023-02-08T16:58:42.789Z,40.47
2023-02-08T17:01:13.656Z,42.38
2023-02-08T17:03:42.140Z,44.20
2023-02-08T17:06:21.985Z,37.80
2023-02-08T17:08:49.431Z,41.40
2023-02-08T17:11:16.794Z,38.20
2023-02-08T17:13:44.141Z,39.65
2023-02-08T17:16:19.368Z,43.95
2023-02-08T17:18:48.117Z,43.35
2023-02-08T17:21:15.724Z,66.35
2023-02-08T17:23:43.617Z,52.95
2023-02-08T17:26:29.300Z,47.50
2023-02-08T17:28:57.984Z,50.10
2023-02-08T17:31:26.627Z,46.50
2023-02-08T17:33:54.000Z,48.65
2023-02-08T17:36:21.503Z,46.13
2023-02-08T17:38:48.942Z,48.20
2023-02-08T17:41:19.274Z,44.10
2023-02-08T17:43:51.626Z,40.83
2023-02-08T17:46:24.969Z,48.55
2023-02-08T17:48:53.071Z,38.53
2023-02-08T17:51:24.752Z,44.42
2023-02-08T17:53:52.626Z,45.40
2023-02-08T17:56:24.016Z,52.90
2023-02-08T17:58:54.058Z,50.05
2023-02-08T18:01:26.301Z,39.05
2023-02-08T18:03:54.203Z,58.55
2023-02-08T18:06:23.398Z,42.20
2023-02-08T18:08:51.349Z,40.65
2023-02-08T18:11:24.211Z,43.28
2023-02-08T18:13:54.473Z,48.88
2023-02-08T18:16:27.139Z,47.78
2023-02-08T18:18:59.682Z,48.45
2023-02-08T18:21:33.342Z,47.53
2023-02-08T18:24:04.921Z,51.53
2023-02-08T18:26:34.715Z,42.58
2023-02-08T18:29:05.684Z,49.92
2023-02-08T18:31:33.317Z,46.40
2023-02-08T18:34:01.848Z,47.38
2023-02-08T18:36:30.382Z,43.88
2023-02-08T18:38:57.930Z,44.05
2023-02-08T18:41:28.620Z,50.13
2023-02-08T18:43:57.574Z,48.60
2023-02-08T18:46:27.730Z,51.53
2023-02-08T18:48:55.388Z,49.22
2023-02-08T18:51:24.515Z,46.30
2023-02-08T18:53:53.925Z,50.90
2023-02-08T18:56:24.451Z,42.60
2023-02-08T18:58:53.206Z,53.45
2023-02-08T19:01:24.899Z,46.03
2023-02-08T19:03:53.978Z,42.33
2023-02-08T19:06:24.936Z,47.22
2023-02-08T19:08:55.245Z,40.15
2023-02-08T19:11:25.775Z,46.72
2023-02-08T19:13:57.302Z,48.65
2023-02-08T19:16:25.195Z,46.78
2023-02-08T19:18:56.823Z,42.72
2023-02-08T19:21:24.607Z,36.70
2023-02-08T19:23:52.968Z,47.17
2023-02-08T19:26:22.534Z,50.13
2023-02-08T19:28:50.745Z,55.28
2023-02-08T19:31:21.790Z,55.40
2023-02-08T19:33:53.883Z,46.42
2023-02-08T19:36:25.008Z,51.47
2023-02-08T19:38:54.283Z,48.88
2023-02-08T19:41:24.480Z,54.20
2023-02-08T19:43:52.680Z,47.83
2023-02-08T19:46:22.850Z,48.50
2023-02-08T19:48:51.102Z,50.47
2023-02-08T19:51:19.802Z,61.00
2023-02-08T19:53:47.693Z,54.95
2023-02-08T19:56:19.775Z,46.28
2023-02-08T19:58:47.700Z,55.47
2023-02-08T20:01:18.977Z,50.40
2023-02-08T20:03:47.780Z,62.50
2023-02-08T20:06:18.760Z,51.10
2023-02-08T20:08:51.994Z,45.90
2023-02-08T20:11:26.154Z,58.30
2023-02-08T20:13:55.382Z,55.03
2023-02-08T20:16:24.213Z,66.25
2023-02-08T20:18:51.860Z,121.93
2023-02-08T20:21:19.857Z,106.05
2023-02-08T20:23:49.988Z,89.85
2023-02-08T20:26:19.529Z,61.72
2023-02-08T20:28:51.599Z,48.60
2023-02-08T20:31:22.360Z,57.53
2023-02-08T20:33:51.433Z,57.67
2023-02-08T20:36:25.941Z,59.97
2023-02-08T20:38:56.201Z,58.40
2023-02-08T20:41:25.689Z,47.15
2023-02-08T20:43:53.791Z,54.33
2023-02-08T20:46:30.735Z,55.97
2023-02-08T20:48:59.785Z,54.47
2023-02-08T20:51:28.077Z,62.05
2023-02-08T20:54:02.794Z,64.65
2023-02-08T20:56:35.915Z,54.42
2023-02-08T20:59:06.722Z,61.33
2023-02-08T21:01:35.314Z,56.00
2023-02-08T21:04:03.391Z,50.00
2023-02-08T21:06:35.049Z,51.17
2023-02-08T21:09:14.861Z,67.95
2023-02-08T21:11:46.187Z,53.65
2023-02-08T21:14:19.003Z,56.55
2023-02-08T21:16:48.608Z,53.17
2023-02-08T21:19:17.488Z,60.70
2023-02-08T21:21:44.872Z,59.50
2023-02-08T21:24:12.240Z,57.00
2023-02-08T21:26:39.529Z,54.70
2023-02-08T21:29:07.024Z,52.65
2023-02-08T21:31:36.991Z,55.65
2023-02-08T21:34:05.762Z,68.10
2023-02-08T21:36:34.011Z,64.35
2023-02-08T21:39:01.339Z,63.45
2023-02-08T21:41:30.988Z,60.35
2023-02-08T21:43:59.776Z,56.40
2023-02-08T21:46:31.378Z,57.70
2023-02-08T21:49:17.678Z,53.60
2023-02-08T21:52:03.851Z,58.75
2023-02-08T21:54:42.402Z,57.40
2023-02-08T21:57:14.305Z,56.92
2023-02-08T21:59:41.836Z,61.63
2023-02-08T22:02:14.981Z,54.97
2023-02-08T22:05:01.132Z,59.88
2023-02-08T22:07:29.433Z,59.75
2023-02-08T22:09:56.924Z,60.35
2023-02-08T22:12:24.545Z,58.65
2023-02-08T22:14:51.836Z,63.30
2023-02-08T22:17:19.429Z,72.80
2023-02-08T22:19:47.084Z,63.90
2023-02-08T22:22:14.155Z,65.05
2023-02-08T22:24:41.975Z,65.25
2023-02-08T22:27:09.895Z,67.18
2023-02-08T22:29:37.184Z,61.40
2023-02-08T22:32:10.108Z,68.78
2023-02-08T22:34:38.691Z,72.70
2023-02-08T22:37:06.006Z,62.40
2023-02-08T22:39:34.487Z,63.67
2023-02-08T22:42:03.727Z,59.85
2023-02-08T22:44:30.966Z,63.58
2023-02-08T22:46:58.259Z,68.35
2023-02-08T22:49:25.515Z,63.40
2023-02-08T22:51:52.762Z,63.08
2023-02-08T22:54:20.157Z,65.75
2023-02-08T22:56:47.258Z,69.65
2023-02-08T22:59:14.543Z,71.10
2023-02-08T23:01:41.988Z,75.07
2023-02-08T23:04:09.417Z,67.63
2023-02-08T23:06:36.776Z,64.18
2023-02-08T23:09:05.581Z,75.35
2023-02-08T23:11:33.477Z,74.72
2023-02-08T23:14:00.873Z,64.00
2023-02-08T23:16:28.432Z,68.65
2023-02-08T23:18:55.775Z,69.30
2023-02-08T23:21:23.042Z,70.25
2023-02-08T23:23:50.603Z,72.22
2023-02-08T23:26:21.118Z,69.18
2023-02-08T23:28:51.295Z,74.43
2023-02-08T23:31:19.424Z,69.13
2023-02-08T23:33:46.933Z,64.47
2023-02-08T23:36:19.772Z,79.38
2023-02-08T23:38:47.505Z,70.85
2023-02-08T23:41:21.008Z,69.40
2023-02-08T23:43:49.932Z,67.43
2023-02-08T23:46:23.393Z,75.68
2023-02-08T23:48:51.458Z,74.00
2023-02-08T23:51:24.399Z,77.53
2023-02-08T23:53:53.408Z,66.13
2023-02-08T23:56:25.221Z,70.53
2023-02-08T23:58:55.418Z,71.38
